Norway, SC (29113)

7:46 AM EST on January 29, 2015 (GMT -0500)
Morgantown | Change Station
CLOSE
Current Station
Personal Weather Station
Location: Springfield, SC
Elevation: 243 ft
Nearby Weather Stations

Elev 243 ft 33.48 °N, 81.24 °W | Updated 4 seconds ago

Clear
Clear
25.6 °F
Feels Like 26 °F
N
0.0
Wind Variable Wind from North
Gusts 0.0 mph

Today
High -- | Low -- °F
--% Chance of Precip.
Yesterday
High -- | Low -- °F
Precip. -- in
7:22 AM 5:52 PM
Waxing Gibbous, 74% visible
Pressure 30.37 in
Visibility 9.0 miles
Clouds Clear
Windchill 26 °F
Dew Point 23 °F
Humidity 91%
Rainfall 0.00 in
Snow Depth Not available.
UV 0.0 out of 12
Pollen 1.90 out of 12
Air Quality Not available.
Flu Activity Not available.
METAR KOGB 291153Z AUTO 00000KT 9SM CLR M03/M04 A3036 RMK AO2 SLP282 60000 I1000 I6000 T10281044 11017 21028 53010

More Conditions Fewer Conditions

Pressure 30.37 in
Visibility 9.0 miles
Clouds Clear
Windchill 26 °F
Dew Point 23 °F
Humidity 91%
Rainfall 0.00 in
Snow Depth Not available.
UV 0.0 out of 12
Pollen 1.90 out of 12
Air Quality Not available.
Flu Activity Not available.
METAR KOGB 291153Z AUTO 00000KT 9SM CLR M03/M04 A3036 RMK AO2 SLP282 60000 I1000 I6000 T10281044 11017 21028 53010

More Conditions Fewer Conditions

10-Day Weather Forecast

Almanac

Astronomy

Jan. 29, 2015 Rise Set
Actual Time
Civil Twilight
Nautical Twilight
Astronomical Twilight
Moon
Length of Visible Light
Length of Day
Tomorrow will be .
, % of the Moon is Illuminated

Today's Extremes

State Highs State Lows

Community

WunderPhotos

Upload Photos

1,791,420 photos uploaded!

WunderBlogs® & News

Nearby

Air Quality

  Air Quality AQ Index Pollutant
Not available.

Snow Depth

Station Depth Elevation

Earthquake Activity

City Distance Mag. Time & Date
Minimum magnitude displayed is 2.5.

Coastal Water Temperatures

Place Temperature

Nearby Weather Stations